Time;durP1;ratioP1;P1;durP2;ratioP2;P2;SDS_P1;SDS_P2;PMS_P1;PMS_P2;Temp;Humidity;BMP_temperature;BMP_pressure;BME280_temperature;BME280_humidity;BME280_pressure;Samples;Min_cycle;Max_cycle;Signal;HPM_P1;HPM_P2
2022/05/16 00:01:56;;;;;;;4.00;1.58;;;22.00;53.60;;;;;;5052203;28;20041;-57
2022/05/16 00:04:22;;;;;;;4.93;1.40;;;22.00;53.60;;;;;;5052400;28;20091;-57
2022/05/16 00:06:48;;;;;;;4.15;1.30;;;22.00;53.60;;;;;;5051340;28;20045;-57
2022/05/16 00:09:13;;;;;;;4.40;1.67;;;22.00;53.60;;;;;;5052177;28;20080;-57
2022/05/16 00:11:39;;;;;;;3.72;1.15;;;22.00;53.60;;;;;;5051931;28;20084;-56
2022/05/16 00:14:04;;;;;;;5.40;1.60;;;22.00;53.60;;;;;;5051169;28;20057;-57
2022/05/16 00:16:30;;;;;;;6.75;1.77;;;22.00;53.70;;;;;;5052206;28;20051;-57
2022/05/16 00:18:55;;;;;;;4.28;1.20;;;22.00;53.70;;;;;;5051456;28;20510;-57
2022/05/16 00:21:21;;;;;;;5.35;1.90;;;22.00;53.70;;;;;;5051362;28;20048;-57
2022/05/16 00:23:47;;;;;;;5.13;1.30;;;22.00;53.70;;;;;;5052053;28;20113;-56
2022/05/16 00:26:12;;;;;;;5.20;1.50;;;21.90;53.70;;;;;;5051804;28;20488;-57
2022/05/16 00:28:37;;;;;;;4.05;1.30;;;21.90;53.60;;;;;;5051278;28;20110;-57
2022/05/16 00:31:04;;;;;;;5.43;1.60;;;21.90;53.70;;;;;;5051918;28;20053;-57
2022/05/16 00:33:30;;;;;;;5.55;1.48;;;21.90;53.70;;;;;;5052020;28;20053;-56
2022/05/16 00:35:55;;;;;;;5.60;1.20;;;21.90;53.70;;;;;;5050919;28;20069;-56
2022/05/16 00:38:21;;;;;;;2.95;1.20;;;21.90;53.70;;;;;;5054819;28;20060;-56
2022/05/16 00:40:46;;;;;;;4.40;1.52;;;21.90;53.70;;;;;;5055321;28;20052;-56
2022/05/16 00:43:13;;;;;;;4.28;1.48;;;21.90;53.80;;;;;;5054818;28;20056;-57
2022/05/16 00:45:38;;;;;;;4.45;1.15;;;21.90;53.80;;;;;;5055873;28;20469;-57
2022/05/16 00:48:04;;;;;;;3.97;1.40;;;21.90;53.80;;;;;;5055637;28;20136;-56
2022/05/16 00:50:31;;;;;;;4.13;1.52;;;21.90;53.80;;;;;;5055034;28;20041;-56
2022/05/16 00:52:56;;;;;;;3.38;1.20;;;21.90;53.80;;;;;;5070916;28;20045;-56
2022/05/16 00:55:31;;;;;;;3.95;1.30;;;21.90;53.80;;;;;;5071225;28;20392;-57
2022/05/16 00:57:58;;;;;;;4.00;1.38;;;21.90;53.80;;;;;;5070380;28;20049;-56
2022/05/16 01:00:31;;;;;;;3.70;1.08;;;21.90;53.80;;;;;;5055695;28;20128;-57
2022/05/16 01:05:51;;;;;;;3.70;1.60;;;21.80;54.50;;;;;;5055340;28;20053;-56
2022/05/16 01:08:18;;;;;;;2.97;1.23;;;21.80;53.80;;;;;;5070949;28;20393;-57
2022/05/16 01:10:44;;;;;;;1.67;1.00;;;21.80;53.80;;;;;;5069792;28;20134;-57
2022/05/16 01:13:09;;;;;;;5.45;1.55;;;21.80;53.80;;;;;;5070783;28;20794;-57
2022/05/16 01:15:45;;;;;;;3.20;1.30;;;21.80;53.90;;;;;;5054943;28;20048;-57
2022/05/16 01:18:13;;;;;;;4.65;1.52;;;21.80;53.90;;;;;;5054324;28;20049;-57
2022/05/16 01:21:03;;;;;;;3.17;1.25;;;21.80;53.90;;;;;;5054893;28;20171;-57
2022/05/16 01:23:31;;;;;;;3.50;1.38;;;21.80;53.90;;;;;;5055259;28;20147;-57
2022/05/16 01:25:57;;;;;;;3.28;1.40;;;21.80;53.90;;;;;;5053882;28;20488;-56
2022/05/16 01:28:23;;;;;;;5.15;1.42;;;21.80;53.90;;;;;;5070433;28;20045;-57
2022/05/16 01:30:49;;;;;;;2.45;1.20;;;21.80;53.90;;;;;;5054080;28;20037;-57
2022/05/16 01:33:16;;;;;;;3.17;1.27;;;21.80;54.00;;;;;;5054908;28;20539;-57
2022/05/16 01:35:41;;;;;;;3.50;1.30;;;21.80;54.00;;;;;;5054749;28;20102;-57
2022/05/16 01:38:19;;;;;;;3.40;1.45;;;21.80;54.00;;;;;;5054057;28;20045;-57
2022/05/16 01:40:53;;;;;;;4.72;1.42;;;21.80;54.00;;;;;;5054467;28;20178;-57
2022/05/16 01:43:23;;;;;;;4.28;1.77;;;21.80;54.00;;;;;;5054662;28;20045;-56
2022/05/16 01:45:48;;;;;;;3.20;1.20;;;21.80;54.00;;;;;;5053862;28;20037;-57
2022/05/16 01:48:14;;;;;;;3.88;1.50;;;21.80;54.00;;;;;;5054135;28;20047;-56
2022/05/16 01:50:40;;;;;;;4.70;1.20;;;21.80;54.10;;;;;;5053682;28;20045;-57
2022/05/16 01:53:06;;;;;;;2.85;1.30;;;21.80;54.00;;;;;;5053892;28;20044;-57
2022/05/16 01:55:31;;;;;;;3.78;1.50;;;21.80;54.00;;;;;;5054369;28;20052;-56
2022/05/16 01:57:57;;;;;;;3.20;1.40;;;21.70;54.00;;;;;;5054163;28;20080;-57
2022/05/16 02:00:22;;;;;;;4.05;1.30;;;21.80;54.10;;;;;;5053869;28;20041;-57
2022/05/16 02:02:48;;;;;;;3.47;1.27;;;21.70;54.00;;;;;;5053989;28;20077;-57
2022/05/16 02:05:15;;;;;;;4.78;1.65;;;21.80;54.10;;;;;;5053997;28;20047;-57
2022/05/16 02:07:41;;;;;;;3.53;1.40;;;21.70;54.10;;;;;;5053255;28;20045;-56
2022/05/16 02:10:07;;;;;;;2.58;1.15;;;21.70;54.00;;;;;;5054251;28;20628;-57
2022/05/16 02:12:33;;;;;;;2.10;1.10;;;21.70;54.00;;;;;;5054176;28;20053;-57
2022/05/16 02:14:59;;;;;;;4.65;1.45;;;21.70;54.00;;;;;;5052865;28;20067;-57
2022/05/16 02:17:25;;;;;;;2.95;0.98;;;21.70;54.10;;;;;;5054036;28;20040;-57
2022/05/16 02:19:50;;;;;;;2.92;1.20;;;21.70;54.10;;;;;;5053846;28;20408;-56
2022/05/16 02:24:59;;;;;;;2.63;1.13;;;21.70;54.10;;;;;;5053609;28;20041;-57
2022/05/16 02:27:25;;;;;;;3.90;1.30;;;21.70;54.20;;;;;;5053334;28;20044;-57
2022/05/16 02:29:51;;;;;;;4.63;1.42;;;21.70;54.20;;;;;;5053731;28;20037;-57
2022/05/16 02:32:16;;;;;;;3.92;1.08;;;21.70;54.20;;;;;;5053765;28;20085;-57
2022/05/16 02:34:44;;;;;;;2.65;1.35;;;21.70;54.10;;;;;;5053004;28;20048;-57
2022/05/16 02:37:10;;;;;;;4.63;1.60;;;21.70;54.20;;;;;;5053616;28;20079;-57
2022/05/16 02:39:36;;;;;;;3.03;1.00;;;21.70;54.90;;;;;;5053800;28;20469;-57
2022/05/16 02:42:02;;;;;;;2.55;1.10;;;21.70;54.20;;;;;;5052724;28;20067;-56
2022/05/16 02:44:27;;;;;;;4.93;1.45;;;21.70;54.30;;;;;;5053753;28;20041;-57
2022/05/16 02:46:53;;;;;;;3.65;1.10;;;21.70;54.30;;;;;;5053058;28;20040;-56
2022/05/16 02:49:21;;;;;;;3.55;1.00;;;21.70;54.30;;;;;;5052707;28;20040;-56
2022/05/16 02:51:46;;;;;;;2.42;1.15;;;21.60;54.20;;;;;;5053414;28;20051;-56
2022/05/16 02:54:12;;;;;;;2.22;1.08;;;21.70;54.30;;;;;;5053437;28;20037;-56
2022/05/16 02:56:37;;;;;;;2.78;1.15;;;21.60;54.30;;;;;;5052680;28;20044;-57
2022/05/16 02:59:03;;;;;;;2.30;1.00;;;21.60;54.30;;;;;;5053045;28;20045;-57
2022/05/16 03:01:29;;;;;;;3.20;1.20;;;21.60;54.30;;;;;;5052959;28;20041;-56
2022/05/16 03:03:55;;;;;;;3.63;1.23;;;21.60;54.30;;;;;;5051743;28;20110;-57
2022/05/16 03:06:20;;;;;;;2.40;1.10;;;21.60;54.30;;;;;;5053116;28;20573;-57
2022/05/16 03:08:46;;;;;;;3.65;1.20;;;21.60;54.30;;;;;;5052609;28;20049;-57
2022/05/16 03:11:11;;;;;;;3.72;1.17;;;21.60;54.30;;;;;;5052329;28;20044;-57
2022/05/16 03:13:37;;;;;;;2.75;1.23;;;21.60;54.30;;;;;;5053209;28;20458;-58
2022/05/16 03:16:03;;;;;;;2.05;1.00;;;21.60;54.30;;;;;;5052847;28;20464;-57
2022/05/16 03:18:29;;;;;;;2.55;1.20;;;21.60;54.30;;;;;;5052302;28;20110;-57
2022/05/16 03:20:55;;;;;;;2.60;1.10;;;21.60;54.40;;;;;;5052085;28;20373;-56
2022/05/16 03:23:21;;;;;;;2.90;1.38;;;21.60;54.30;;;;;;5052194;28;20048;-57
2022/05/16 03:25:46;;;;;;;3.28;1.27;;;21.60;54.30;;;;;;5052728;28;20124;-56
2022/05/16 03:28:12;;;;;;;2.65;1.15;;;21.60;54.40;;;;;;5052960;28;20033;-56
2022/05/16 03:30:38;;;;;;;3.00;1.23;;;21.60;54.40;;;;;;5052109;28;20518;-57
2022/05/16 03:33:05;;;;;;;2.33;0.90;;;21.60;54.40;;;;;;5052506;28;20048;-56
2022/05/16 03:35:30;;;;;;;2.40;1.10;;;21.60;54.40;;;;;;5052556;28;20496;-57
2022/05/16 03:37:56;;;;;;;2.55;1.13;;;21.60;54.40;;;;;;5051600;28;20045;-56
2022/05/16 03:43:05;;;;;;;2.28;1.33;;;21.60;54.40;;;;;;5052246;28;20476;-56
2022/05/16 03:45:31;;;;;;;2.65;1.10;;;21.50;54.30;;;;;;5051952;28;20041;-56
2022/05/16 03:47:57;;;;;;;2.85;1.17;;;21.50;54.40;;;;;;5052274;28;20041;-56
2022/05/16 03:50:22;;;;;;;4.00;1.25;;;21.50;54.30;;;;;;5052669;28;20055;-56
2022/05/16 03:52:48;;;;;;;2.83;1.20;;;21.50;54.30;;;;;;5051284;28;20041;-56
2022/05/16 03:55:14;;;;;;;3.25;1.20;;;21.50;54.30;;;;;;5052527;28;20408;-56
2022/05/16 03:57:41;;;;;;;2.97;1.30;;;21.50;54.30;;;;;;5051970;28;20403;-56
2022/05/16 04:00:09;;;;;;;1.77;0.90;;;21.50;54.30;;;;;;5051839;28;20041;-56
2022/05/16 04:02:36;;;;;;;3.00;1.27;;;21.50;54.30;;;;;;5052181;28;20045;-56
2022/05/16 04:05:03;;;;;;;3.47;1.08;;;21.50;54.40;;;;;;5050699;28;20044;-56
2022/05/16 04:07:29;;;;;;;2.70;1.00;;;21.50;54.40;;;;;;5051063;28;20049;-56
2022/05/16 04:09:54;;;;;;;2.92;1.00;;;21.50;54.40;;;;;;5051879;28;20098;-56
2022/05/16 04:12:20;;;;;;;2.60;1.00;;;21.50;54.40;;;;;;5053432;28;20041;-56
2022/05/16 04:14:46;;;;;;;3.28;1.08;;;21.50;54.50;;;;;;5055221;28;20057;-56
2022/05/16 04:17:11;;;;;;;1.67;0.88;;;21.50;54.50;;;;;;5056109;28;20114;-57
2022/05/16 04:19:37;;;;;;;1.92;1.00;;;21.50;54.50;;;;;;5055449;28;20084;-57
2022/05/16 04:22:02;;;;;;;3.78;1.20;;;21.50;54.50;;;;;;5056109;28;20049;-57
2022/05/16 04:24:28;;;;;;;4.35;1.10;;;21.40;54.50;;;;;;5056272;28;20045;-57
2022/05/16 04:26:53;;;;;;;2.40;1.08;;;21.50;54.60;;;;;;5055222;28;20048;-57
2022/05/16 04:29:19;;;;;;;3.17;0.90;;;21.50;54.60;;;;;;5056354;28;20205;-56
2022/05/16 04:31:44;;;;;;;3.45;1.20;;;21.50;54.50;;;;;;5055767;28;20041;-56
2022/05/16 04:34:10;;;;;;;2.80;1.30;;;21.50;54.50;;;;;;5054787;28;20508;-56
2022/05/16 04:36:37;;;;;;;2.75;1.10;;;21.50;54.50;;;;;;5055655;28;20052;-57
2022/05/16 04:39:03;;;;;;;2.25;0.80;;;21.50;54.50;;;;;;5055166;28;20060;-57
2022/05/16 04:44:12;;;;;;;2.90;1.20;;;21.50;54.50;;;;;;5056076;28;20045;-57
2022/05/16 04:46:38;;;;;;;2.65;1.40;;;21.50;54.50;;;;;;5055601;28;20029;-57
2022/05/16 04:49:03;;;;;;;1.80;1.20;;;21.50;54.60;;;;;;5055007;28;20503;-57
2022/05/16 04:51:29;;;;;;;3.08;1.00;;;21.40;54.40;;;;;;5055876;28;20562;-57
2022/05/16 04:53:54;;;;;;;2.33;0.75;;;21.50;54.40;;;;;;5055548;28;20087;-57
2022/05/16 04:56:20;;;;;;;3.13;1.10;;;21.50;54.30;;;;;;5055017;28;20056;-57
2022/05/16 04:58:45;;;;;;;1.33;0.90;;;21.50;54.30;;;;;;5055394;28;20049;-56
2022/05/16 05:01:11;;;;;;;2.70;0.90;;;21.50;54.30;;;;;;5055544;28;20523;-57
2022/05/16 05:03:37;;;;;;;2.88;1.02;;;21.50;54.40;;;;;;5054515;28;20088;-56
2022/05/16 05:06:02;;;;;;;2.63;1.30;;;21.50;54.30;;;;;;5054841;28;20043;-56
2022/05/16 05:08:28;;;;;;;2.22;0.90;;;21.50;54.30;;;;;;5055443;28;20033;-56
2022/05/16 05:16:22;;;;;;;1.90;1.05;;;21.50;54.30;;;;;;5048671;28;20399;-57
2022/05/16 05:18:48;;;;;;;2.65;1.10;;;21.50;54.40;;;;;;5055535;28;20378;-56
2022/05/16 05:21:14;;;;;;;2.45;0.88;;;21.50;54.50;;;;;;5035148;28;20053;-57
2022/05/16 05:23:40;;;;;;;2.90;1.08;;;21.50;54.50;;;;;;5033885;28;20034;-57
2022/05/16 05:26:07;;;;;;;2.13;1.00;;;21.60;54.60;;;;;;5035034;28;20128;-57
2022/05/16 05:28:33;;;;;;;2.42;1.00;;;21.60;54.60;;;;;;5035071;28;20038;-57
2022/05/16 05:30:59;;;;;;;3.20;0.88;;;21.50;54.60;;;;;;5033729;28;20053;-57
2022/05/16 05:33:24;;;;;;;2.47;1.20;;;21.60;54.60;;;;;;5034669;28;20037;-57
2022/05/16 05:35:50;;;;;;;3.42;1.15;;;21.50;54.60;;;;;;5034858;28;20052;-56
2022/05/16 05:38:15;;;;;;;2.80;1.17;;;21.60;54.60;;;;;;5034072;28;20049;-57
2022/05/16 05:40:41;;;;;;;2.35;0.98;;;21.60;54.70;;;;;;5034391;28;20042;-56
2022/05/16 05:43:06;;;;;;;3.08;1.00;;;21.60;54.70;;;;;;5043582;28;20115;-56
2022/05/16 05:45:32;;;;;;;3.08;0.95;;;21.60;54.80;;;;;;5043069;28;20033;-57
2022/05/16 05:47:58;;;;;;;2.33;1.02;;;21.60;54.90;;;;;;5047628;28;20372;-57
2022/05/16 05:50:24;;;;;;;3.63;1.35;;;21.60;54.80;;;;;;5054516;28;20041;-57
2022/05/16 05:52:49;;;;;;;4.07;1.33;;;21.70;55.00;;;;;;5053146;28;20041;-56
2022/05/16 05:55:15;;;;;;;3.30;1.08;;;21.70;55.00;;;;;;5054246;28;20116;-56
2022/05/16 05:57:41;;;;;;;3.92;1.38;;;21.70;55.00;;;;;;5053956;28;20045;-57
2022/05/16 06:00:09;;;;;;;3.70;1.30;;;21.70;55.10;;;;;;5053489;28;20041;-56
2022/05/16 06:02:37;;;;;;;6.00;1.27;;;21.70;55.20;;;;;;5049154;28;20045;-56
2022/05/16 06:05:04;;;;;;;6.03;1.10;;;21.70;55.30;;;;;;5040457;28;20065;-56
2022/05/16 06:07:29;;;;;;;3.65;1.08;;;21.80;55.50;;;;;;5034171;28;20046;-56
2022/05/16 06:09:55;;;;;;;9.38;2.70;;;21.80;55.50;;;;;;5033942;28;20048;-56
2022/05/16 06:12:20;;;;;;;8.63;2.75;;;21.80;56.40;;;;;;5033449;28;20052;-55
2022/05/16 06:14:46;;;;;;;4.82;1.40;;;21.80;55.80;;;;;;5033618;28;20057;-56
2022/05/16 06:17:12;;;;;;;10.63;1.48;;;21.80;55.70;;;;;;5033820;28;20493;-56
2022/05/16 06:19:37;;;;;;;6.45;2.10;;;21.80;55.70;;;;;;5033254;28;20405;-56
2022/05/16 06:22:03;;;;;;;9.55;2.20;;;21.80;55.70;;;;;;5033697;28;20520;-57
2022/05/16 06:27:13;;;;;;;9.10;2.13;;;21.80;55.90;;;;;;5033272;28;20050;-57
2022/05/16 06:29:39;;;;;;;5.30;1.83;;;21.80;55.90;;;;;;5033730;28;20053;-56
2022/05/16 06:32:05;;;;;;;6.82;2.45;;;21.80;55.90;;;;;;5033902;28;20046;-56
2022/05/16 06:34:31;;;;;;;6.53;1.90;;;21.80;55.90;;;;;;5032582;28;20120;-57
2022/05/16 06:36:56;;;;;;;5.68;2.20;;;21.80;55.90;;;;;;5032919;28;20216;-58
2022/05/16 06:39:22;;;;;;;7.50;1.95;;;21.90;56.10;;;;;;5033613;28;20045;-57
2022/05/16 06:41:47;;;;;;;6.38;2.28;;;21.90;56.10;;;;;;5032514;28;20049;-57
2022/05/16 06:44:14;;;;;;;8.48;2.28;;;21.80;56.10;;;;;;5033592;28;20455;-57
2022/05/16 06:46:41;;;;;;;5.90;1.95;;;21.80;56.20;;;;;;5033455;28;20045;-57
2022/05/16 06:49:06;;;;;;;9.18;2.35;;;21.80;56.30;;;;;;5032581;28;20041;-57
2022/05/16 06:51:32;;;;;;;9.43;2.33;;;21.90;56.40;;;;;;5033544;28;20504;-57
2022/05/16 06:53:57;;;;;;;8.02;2.15;;;21.80;56.40;;;;;;5033326;28;20068;-56
2022/05/16 06:56:23;;;;;;;6.10;2.25;;;21.80;56.50;;;;;;5032665;28;20080;-57
2022/05/16 06:58:48;;;;;;;4.82;2.00;;;21.80;56.50;;;;;;5033188;28;20095;-57
2022/05/16 07:01:14;;;;;;;6.55;2.40;;;21.90;56.60;;;;;;5033205;28;20499;-56
2022/05/16 07:03:42;;;;;;;6.50;1.98;;;21.90;56.60;;;;;;5032283;28;20049;-56
2022/05/16 07:06:07;;;;;;;6.38;1.88;;;21.90;56.60;;;;;;5051683;28;20370;-57
2022/05/16 07:08:33;;;;;;;9.88;2.35;;;21.90;56.50;;;;;;5052486;28;20078;-57
2022/05/16 07:10:58;;;;;;;6.00;2.00;;;21.90;56.50;;;;;;5052878;28;20097;-56
2022/05/16 07:13:24;;;;;;;7.55;2.13;;;21.90;56.60;;;;;;5053334;28;20049;-57
2022/05/16 07:15:50;;;;;;;6.55;1.80;;;21.90;56.50;;;;;;5051808;28;20053;-56
2022/05/16 07:18:16;;;;;;;6.38;1.80;;;21.90;56.50;;;;;;5052586;28;20044;-56
2022/05/16 07:20:41;;;;;;;6.80;1.90;;;22.00;56.50;;;;;;5052619;28;20041;-57
2022/05/16 07:23:07;;;;;;;5.60;1.77;;;22.00;56.50;;;;;;5052212;28;20041;-57
2022/05/16 07:27:56;;;;;;;5.32;1.85;;;21.90;56.40;;;;;;5053049;28;20387;-57
2022/05/16 07:28:18;;;;;;;8.13;2.15;;;22.00;56.40;;;;;;5052484;28;20045;-57
2022/05/16 07:30:44;;;;;;;4.43;1.52;;;22.00;56.40;;;;;;5051711;28;20403;-57
2022/05/16 07:33:09;;;;;;;4.53;1.70;;;22.00;56.40;;;;;;5052762;28;20037;-57
2022/05/16 07:35:36;;;;;;;6.07;1.85;;;22.00;56.40;;;;;;5052785;28;20045;-57
2022/05/16 07:38:02;;;;;;;6.40;2.00;;;21.90;56.40;;;;;;5051731;28;20045;-57
2022/05/16 07:40:29;;;;;;;5.25;1.60;;;22.00;56.50;;;;;;5045805;28;20072;-57
2022/05/16 07:42:55;;;;;;;3.67;1.95;;;21.90;56.50;;;;;;5032320;28;20571;-58
2022/05/16 07:45:21;;;;;;;5.28;1.95;;;22.00;56.50;;;;;;5031938;28;20128;-57
2022/05/16 07:47:47;;;;;;;6.05;1.60;;;21.90;56.40;;;;;;5031605;28;20133;-57
2022/05/16 07:50:12;;;;;;;5.70;1.77;;;22.00;56.40;;;;;;5032523;28;20044;-58
2022/05/16 07:52:38;;;;;;;4.32;1.30;;;22.00;56.40;;;;;;5031896;28;20076;-57
2022/05/16 07:55:05;;;;;;;6.45;1.50;;;22.00;56.40;;;;;;5032590;28;20092;-57
2022/05/16 07:57:30;;;;;;;4.30;1.88;;;22.00;56.40;;;;;;5032429;28;20049;-58
2022/05/16 07:59:57;;;;;;;5.32;1.83;;;22.00;56.50;;;;;;5032164;28;20045;-57
2022/05/16 08:02:22;;;;;;;6.20;1.70;;;22.00;56.40;;;;;;5032469;28;20130;-57
2022/05/16 08:04:48;;;;;;;8.77;1.65;;;22.00;56.50;;;;;;5030031;28;20122;-57
2022/05/16 08:07:13;;;;;;;6.72;1.70;;;21.90;56.40;;;;;;5032661;28;20049;-58
2022/05/16 08:12:24;;;;;;;5.45;1.80;;;22.00;56.40;;;;;;5047398;28;20072;-57
2022/05/16 08:14:50;;;;;;;5.47;1.38;;;22.00;56.40;;;;;;5032088;28;20539;-58
2022/05/16 08:17:16;;;;;;;5.07;1.73;;;21.90;56.40;;;;;;5032375;28;20045;-57
2022/05/16 08:19:41;;;;;;;4.72;1.50;;;22.00;56.40;;;;;;5031625;28;20460;-58
2022/05/16 08:22:07;;;;;;;6.15;1.75;;;22.00;56.50;;;;;;5032556;28;20049;-57
2022/05/16 08:24:32;;;;;;;6.78;2.33;;;22.00;56.50;;;;;;5047794;28;20073;-57
2022/05/16 08:26:58;;;;;;;5.68;1.60;;;22.00;56.60;;;;;;5031533;28;20049;-58
2022/05/16 08:29:23;;;;;;;4.30;1.45;;;22.00;56.60;;;;;;5032720;28;20053;-57
2022/05/16 08:31:49;;;;;;;3.53;1.42;;;22.00;56.60;;;;;;5032292;28;20052;-57
2022/05/16 08:34:14;;;;;;;4.20;1.40;;;22.00;56.50;;;;;;5031656;28;20563;-58
2022/05/16 08:42:10;;;;;;;4.72;1.40;;;22.00;56.60;;;;;;5031921;28;20473;-57
2022/05/16 08:44:50;;;;;;;5.13;1.50;;;22.00;56.70;;;;;;5031303;28;20050;-58
2022/05/16 08:47:50;;;;;;;5.13;1.63;;;22.00;56.60;;;;;;5046859;28;20045;-57
2022/05/16 08:50:50;;;;;;;4.00;1.50;;;22.10;56.60;;;;;;5047395;28;20366;-57
2022/05/16 08:53:23;;;;;;;5.32;1.67;;;22.10;57.00;;;;;;5020139;28;20056;-57
2022/05/16 08:55:53;;;;;;;3.65;1.30;;;22.10;56.70;;;;;;5046372;28;20042;-57
2022/05/16 08:58:29;;;;;;;3.72;1.30;;;22.10;56.70;;;;;;5048328;28;20132;-57
2022/05/16 09:01:00;;;;;;;5.90;1.30;;;22.10;56.60;;;;;;5049953;28;20038;-57
2022/05/16 09:03:33;;;;;;;4.90;1.83;;;22.10;56.70;;;;;;5051140;28;20156;-57
2022/05/16 09:06:01;;;;;;;3.72;1.52;;;22.10;56.60;;;;;;5035438;28;20152;-57
2022/05/16 09:08:50;;;;;;;4.68;1.73;;;22.10;56.60;;;;;;5050178;28;20050;-57
2022/05/16 09:11:31;;;;;;;3.88;1.52;;;22.10;56.60;;;;;;5048316;28;20056;-57
2022/05/16 09:14:00;;;;;;;6.55;1.50;;;22.10;56.60;;;;;;5050624;28;20054;-57
2022/05/16 09:16:44;;;;;;;3.42;1.25;;;22.10;56.70;;;;;;5033518;28;20049;-57
2022/05/16 09:19:29;;;;;;;3.22;1.52;;;22.10;56.70;;;;;;5049885;28;20484;-57
2022/05/16 09:22:24;;;;;;;3.20;1.10;;;22.10;56.70;;;;;;5048442;28;20050;-57
2022/05/16 09:24:51;;;;;;;4.72;1.48;;;22.10;56.70;;;;;;5015490;28;20058;-57
2022/05/16 09:30:17;;;;;;;4.53;1.35;;;22.10;56.70;;;;;;5034349;28;20053;-57
2022/05/16 09:32:45;;;;;;;4.63;1.27;;;22.10;56.70;;;;;;5034873;28;20087;-57
2022/05/16 09:35:24;;;;;;;3.00;1.05;;;22.10;56.80;;;;;;5034477;28;20054;-57
2022/05/16 09:37:50;;;;;;;5.70;1.65;;;22.10;56.70;;;;;;5048371;28;20050;-57
2022/05/16 09:40:16;;;;;;;3.63;1.42;;;22.10;56.70;;;;;;5050182;28;20049;-57
2022/05/16 09:42:41;;;;;;;3.22;1.40;;;22.10;56.80;;;;;;5034808;28;20041;-57
2022/05/16 09:45:22;;;;;;;2.97;1.20;;;22.10;56.80;;;;;;5033145;28;20078;-57
2022/05/16 09:47:47;;;;;;;4.38;1.52;;;22.10;56.90;;;;;;5033423;28;20087;-58
2022/05/16 09:50:23;;;;;;;4.97;1.38;;;22.10;57.00;;;;;;5034142;28;20081;-57
2022/05/16 09:53:07;;;;;;;2.95;1.20;;;22.10;57.00;;;;;;5034461;28;20046;-57
2022/05/16 09:55:56;;;;;;;3.40;1.08;;;22.10;57.00;;;;;;5034818;28;20045;-57
2022/05/16 09:58:31;;;;;;;3.67;1.35;;;22.10;57.00;;;;;;5033990;28;20085;-57
2022/05/16 10:01:07;;;;;;;5.32;1.25;;;22.10;57.00;;;;;;5033160;28;20057;-57
2022/05/16 10:03:44;;;;;;;6.78;1.70;;;22.10;57.00;;;;;;5034288;28;20496;-57
2022/05/16 10:06:30;;;;;;;3.78;1.55;;;22.10;57.00;;;;;;5048961;28;20499;-57
2022/05/16 10:08:55;;;;;;;4.68;1.30;;;22.10;57.00;;;;;;5047109;28;20099;-57
2022/05/16 10:11:24;;;;;;;3.53;1.42;;;22.10;57.00;;;;;;5032472;28;20046;-57
2022/05/16 10:13:50;;;;;;;4.78;1.55;;;22.10;57.00;;;;;;5033742;28;20432;-57
2022/05/16 10:16:15;;;;;;;4.35;1.60;;;22.10;57.10;;;;;;5049901;28;20111;-57
2022/05/16 10:19:18;;;;;;;3.22;1.40;;;22.10;57.10;;;;;;5032082;28;20125;-57
2022/05/16 10:21:55;;;;;;;4.28;1.27;;;22.10;57.10;;;;;;5012142;28;20512;-57
2022/05/16 10:24:21;;;;;;;3.17;1.10;;;22.10;57.10;;;;;;5032890;28;20095;-57
2022/05/16 10:26:49;;;;;;;2.53;1.30;;;22.10;57.10;;;;;;5048520;28;20055;-57
2022/05/16 10:29:25;;;;;;;5.87;1.23;;;22.10;57.10;;;;;;5032869;28;20045;-58
2022/05/16 10:34:44;;;;;;;4.38;1.20;;;22.10;57.10;;;;;;5046356;28;20092;-57
2022/05/16 10:37:10;;;;;;;3.53;1.10;;;22.20;57.20;;;;;;5048835;28;20038;-57
2022/05/16 10:39:37;;;;;;;3.25;1.20;;;22.20;57.20;;;;;;5033619;28;20052;-57
2022/05/16 10:42:24;;;;;;;4.85;1.40;;;22.20;57.20;;;;;;5048764;28;20041;-58
2022/05/16 10:45:10;;;;;;;5.20;1.30;;;22.20;57.20;;;;;;5049074;28;20045;-57
2022/05/16 10:47:52;;;;;;;3.30;1.10;;;22.20;57.10;;;;;;5033095;28;20049;-57
2022/05/16 10:50:23;;;;;;;4.05;1.38;;;22.20;57.20;;;;;;5049132;28;20049;-58
2022/05/16 10:53:02;;;;;;;3.75;1.13;;;22.20;57.20;;;;;;5049001;28;20049;-57
2022/05/16 10:55:31;;;;;;;2.95;1.40;;;22.20;57.20;;;;;;5048046;28;20071;-57
2022/05/16 10:58:37;;;;;;;2.67;1.20;;;22.20;57.20;;;;;;5032236;28;20045;-57
2022/05/16 11:01:55;;;;;;;3.42;1.30;;;22.20;57.20;;;;;;5041367;28;20084;-57
2022/05/16 11:04:33;;;;;;;3.65;1.13;;;22.20;57.20;;;;;;5023994;28;20057;-57
2022/05/16 11:07:05;;;;;;;3.72;1.30;;;22.20;57.20;;;;;;5033383;28;20060;-57
2022/05/16 11:09:42;;;;;;;3.03;0.90;;;22.20;57.20;;;;;;5047850;28;20038;-57
2022/05/16 11:12:24;;;;;;;4.22;1.20;;;22.20;57.20;;;;;;5033298;28;20046;-57
2022/05/16 11:14:59;;;;;;;2.90;1.15;;;22.20;57.20;;;;;;5047519;28;20065;-57
2022/05/16 11:17:36;;;;;;;4.00;1.20;;;22.20;57.20;;;;;;5048747;28;20099;-57
2022/05/16 11:20:05;;;;;;;2.28;1.17;;;22.20;57.40;;;;;;5032992;28;20046;-57
2022/05/16 11:22:31;;;;;;;;;;;22.20;57.30;;;;;;5047827;28;20497;-57
2022/05/16 11:25:00;;;;;;;2.72;1.08;;;22.10;57.20;;;;;;5032927;28;19921;-56
2022/05/16 11:27:35;;;;;;;2.83;1.27;;;22.20;57.40;;;;;;5048689;28;20099;-57
2022/05/16 11:30:03;;;;;;;5.43;1.40;;;22.10;57.30;;;;;;5032195;28;20088;-57
2022/05/16 11:33:08;;;;;;;3.53;1.00;;;22.20;57.40;;;;;;5033058;28;20049;-57
2022/05/16 11:35:41;;;;;;;2.97;1.25;;;22.10;57.30;;;;;;5032212;28;20076;-57
2022/05/16 11:38:14;;;;;;;4.45;1.10;;;22.10;57.30;;;;;;5032732;28;20449;-57
2022/05/16 11:40:49;;;;;;;2.97;1.10;;;22.10;57.30;;;;;;5048224;28;20076;-57
2022/05/16 11:43:32;;;;;;;3.78;1.10;;;22.10;57.40;;;;;;5032261;28;20045;-57
2022/05/16 11:46:22;;;;;;;2.97;1.13;;;22.10;57.30;;;;;;5047909;28;20041;-57
2022/05/16 11:49:06;;;;;;;2.10;0.95;;;22.10;57.40;;;;;;5032490;28;20041;-57
2022/05/16 11:51:53;;;;;;;3.08;1.30;;;22.10;57.50;;;;;;5046158;28;20045;-57
2022/05/16 11:54:40;;;;;;;3.75;1.30;;;22.10;57.50;;;;;;5048062;28;20041;-57
2022/05/16 12:02:51;;;;;;;4.38;1.10;;;22.10;57.60;;;;;;5032457;28;20128;-57
2022/05/16 12:05:20;;;;;;;4.03;1.50;;;22.10;57.70;;;;;;5032095;28;20050;-57
2022/05/16 12:07:47;;;;;;;3.50;1.15;;;22.10;57.60;;;;;;5032468;28;20300;-57
2022/05/16 12:10:15;;;;;;;2.90;1.30;;;22.00;57.60;;;;;;5032645;28;20045;-57
2022/05/16 12:13:17;;;;;;;2.38;1.00;;;22.00;57.60;;;;;;5031577;28;20037;-57
2022/05/16 12:15:43;;;;;;;3.42;1.15;;;22.00;57.60;;;;;;5028353;28;20052;-57
2022/05/16 12:18:31;;;;;;;2.25;1.00;;;22.00;57.60;;;;;;5047121;28;20053;-57
2022/05/16 12:21:00;;;;;;;2.78;1.08;;;22.00;57.60;;;;;;5047388;28;20477;-57
2022/05/16 12:23:56;;;;;;;2.60;1.17;;;22.00;57.70;;;;;;5032662;28;20167;-58
2022/05/16 12:26:52;;;;;;;2.38;1.13;;;22.00;57.70;;;;;;5027028;28;20057;-57
2022/05/16 12:29:21;;;;;;;4.47;1.13;;;22.00;57.70;;;;;;5032238;28;20077;-58
2022/05/16 12:31:49;;;;;;;2.83;1.02;;;22.00;57.70;;;;;;5032036;28;20520;-57
2022/05/16 12:34:42;;;;;;;3.03;1.35;;;22.00;57.80;;;;;;5034609;28;20049;-57
2022/05/16 12:37:10;;;;;;;2.58;1.00;;;22.00;57.70;;;;;;5035199;28;20114;-57
2022/05/16 12:39:38;;;;;;;;;;;22.00;57.80;;;;;;5035965;28;20042;-57
2022/05/16 12:42:27;;;;;;;3.90;1.38;;;22.00;57.70;;;;;;5036294;28;19928;-57
2022/05/16 12:44:57;;;;;;;3.03;1.13;;;22.00;57.80;;;;;;5051468;28;20045;-57
2022/05/16 12:48:00;;;;;;;2.95;1.30;;;22.00;57.80;;;;;;5035312;28;20041;-57
2022/05/16 12:50:56;;;;;;;4.15;1.17;;;22.00;57.80;;;;;;5036181;28;20045;-57
2022/05/16 12:54:04;;;;;;;3.63;1.30;;;22.00;57.80;;;;;;5035056;28;20510;-57
2022/05/16 12:56:32;;;;;;;3.38;1.10;;;22.00;57.80;;;;;;5034756;28;20042;-57
2022/05/16 12:59:09;;;;;;;3.63;1.20;;;22.00;57.80;;;;;;5035620;28;20057;-57
2022/05/16 13:01:48;;;;;;;2.33;1.15;;;22.00;57.90;;;;;;5035172;28;20504;-57
2022/05/16 13:04:41;;;;;;;3.10;1.20;;;22.00;57.90;;;;;;5034347;28;20049;-57
2022/05/16 13:07:19;;;;;;;2.70;1.27;;;22.00;58.00;;;;;;5031912;28;20060;-57
2022/05/16 13:09:54;;;;;;;;;;;22.00;58.00;;;;;;5035943;28;20053;-57
2022/05/16 13:12:40;;;;;;;4.13;1.05;;;22.00;57.90;;;;;;5035778;28;19921;-57
2022/05/16 13:15:28;;;;;;;1.95;1.02;;;22.00;58.00;;;;;;5034546;28;20057;-57
2022/05/16 13:17:57;;;;;;;1.80;0.98;;;22.00;58.00;;;;;;5035138;28;20049;-57
2022/05/16 13:20:24;;;;;;;2.35;1.10;;;22.00;58.10;;;;;;5035296;28;20485;-57
2022/05/16 13:22:50;;;;;;;3.83;1.10;;;22.00;58.10;;;;;;5049681;28;20055;-57
2022/05/16 13:25:17;;;;;;;3.10;1.13;;;22.00;58.10;;;;;;5035478;28;20394;-57
2022/05/16 13:30:36;;;;;;;1.58;1.00;;;21.90;58.10;;;;;;5035468;28;20045;-57
2022/05/16 13:33:02;;;;;;;2.30;1.10;;;22.00;58.10;;;;;;5034955;28;20041;-57
2022/05/16 13:35:36;;;;;;;2.53;1.05;;;21.90;58.10;;;;;;5034425;28;20037;-57
2022/05/16 13:38:06;;;;;;;2.38;1.30;;;22.00;58.10;;;;;;5034612;28;20053;-57
2022/05/16 13:40:42;;;;;;;1.60;0.90;;;22.00;58.20;;;;;;5050509;28;20041;-57
2022/05/16 13:43:12;;;;;;;3.67;1.20;;;22.00;58.20;;;;;;5034623;28;20099;-57
2022/05/16 13:45:38;;;;;;;2.42;1.10;;;21.90;58.10;;;;;;5034793;28;20481;-57